createdAt,value
2022-08-09T00:00:34.855Z,56.50
2022-08-09T00:03:18.881Z,56.60
2022-08-09T00:06:15.861Z,56.50
2022-08-09T00:08:48.569Z,56.30
2022-08-09T00:11:25.004Z,56.10
2022-08-09T00:13:52.448Z,56.00
2022-08-09T00:16:26.383Z,56.10
2022-08-09T00:19:09.376Z,56.00
2022-08-09T00:21:37.935Z,56.00
2022-08-09T00:24:12.646Z,56.00
2022-08-09T00:26:41.809Z,56.20
2022-08-09T00:29:12.144Z,56.20
2022-08-09T00:31:58.473Z,56.10
2022-08-09T00:34:27.135Z,56.30
2022-08-09T00:37:00.138Z,56.40
2022-08-09T00:40:09.656Z,56.20
2022-08-09T00:44:11.019Z,56.20
2022-08-09T00:45:16.415Z,56.20
2022-08-09T00:47:44.021Z,56.10
2022-08-09T00:50:16.803Z,56.00
2022-08-09T00:52:46.232Z,56.10
2022-08-09T00:55:16.663Z,56.30
2022-08-09T00:58:00.449Z,56.20
2022-08-09T01:00:28.110Z,56.20
2022-08-09T01:03:18.213Z,56.20
2022-08-09T01:06:13.898Z,56.10
2022-08-09T01:08:51.526Z,56.10
2022-08-09T01:11:41.819Z,56.20
2022-08-09T01:15:06.056Z,56.30
2022-08-09T01:17:57.615Z,56.60
2022-08-09T01:20:41.391Z,56.60
2022-08-09T01:24:01.212Z,56.80
2022-08-09T01:26:36.344Z,56.80
2022-08-09T01:29:06.418Z,56.80
2022-08-09T01:32:30.218Z,56.90
2022-08-09T01:34:27.208Z,57.10
2022-08-09T01:36:59.002Z,57.30
2022-08-09T01:39:31.088Z,57.30
2022-08-09T01:42:11.279Z,57.50
2022-08-09T01:44:42.187Z,57.70
2022-08-09T01:47:11.819Z,57.80
2022-08-09T01:49:39.991Z,58.40
2022-08-09T01:52:15.458Z,59.10
2022-08-09T01:54:53.563Z,59.00
2022-08-09T01:57:39.846Z,59.90
2022-08-09T02:00:34.430Z,60.20
2022-08-09T02:03:02.974Z,60.70
2022-08-09T02:05:37.773Z,60.70
2022-08-09T02:08:38.751Z,60.90
2022-08-09T02:11:17.134Z,61.20
2022-08-09T02:13:55.313Z,61.00
2022-08-09T02:16:53.108Z,61.10
2022-08-09T02:19:24.566Z,61.70
2022-08-09T02:22:08.802Z,60.80
2022-08-09T02:24:38.143Z,60.80
2022-08-09T02:27:14.522Z,60.70
2022-08-09T02:29:54.319Z,60.60
2022-08-09T02:32:23.360Z,60.60
2022-08-09T02:35:17.476Z,60.60
2022-08-09T02:37:48.929Z,60.50
2022-08-09T02:40:27.129Z,60.50
2022-08-09T02:43:01.094Z,60.40
2022-08-09T02:45:34.876Z,60.60
2022-08-09T02:48:08.505Z,60.70
2022-08-09T02:50:55.833Z,60.60
2022-08-09T02:53:28.954Z,60.60
2022-08-09T02:55:59.051Z,60.80
2022-08-09T02:58:35.846Z,60.70
2022-08-09T03:01:10.933Z,60.60
2022-08-09T03:04:16.710Z,60.80
2022-08-09T03:06:30.414Z,61.00
2022-08-09T03:08:58.104Z,61.10
2022-08-09T03:12:04.348Z,61.20
2022-08-09T03:14:20.180Z,61.10
2022-08-09T03:16:54.527Z,62.00
2022-08-09T03:19:59.653Z,61.30
2022-08-09T03:22:25.568Z,61.30
2022-08-09T03:25:06.427Z,61.30
2022-08-09T03:27:52.745Z,61.40
2022-08-09T03:30:29.706Z,61.50
2022-08-09T03:33:11.094Z,61.60
2022-08-09T03:36:14.056Z,61.80
2022-08-09T03:38:31.638Z,61.80
2022-08-09T03:40:58.608Z,62.00
2022-08-09T03:43:31.824Z,62.00
2022-08-09T03:46:05.423Z,62.10
2022-08-09T03:48:55.118Z,62.20
2022-08-09T03:51:55.107Z,62.30
2022-08-09T03:54:14.305Z,62.30
2022-08-09T03:56:41.846Z,62.30
2022-08-09T03:59:20.741Z,62.40
2022-08-09T04:01:50.677Z,62.30
2022-08-09T04:04:21.113Z,62.30
2022-08-09T04:06:54.803Z,62.20
2022-08-09T04:09:41.905Z,62.20
2022-08-09T04:12:11.984Z,62.10
2022-08-09T04:15:01.913Z,62.30
2022-08-09T04:17:39.525Z,62.20
2022-08-09T04:20:11.647Z,62.30
2022-08-09T04:22:44.261Z,62.30
2022-08-09T04:25:13.024Z,62.50
2022-08-09T04:27:48.869Z,62.60
2022-08-09T04:30:23.377Z,62.60
2022-08-09T04:32:54.191Z,62.60
2022-08-09T04:35:23.259Z,62.60
2022-08-09T04:37:50.798Z,62.50
2022-08-09T04:40:19.691Z,62.50
2022-08-09T04:43:05.824Z,62.50
2022-08-09T04:45:35.961Z,62.30
2022-08-09T04:48:19.398Z,62.20
2022-08-09T04:50:46.459Z,62.10
2022-08-09T04:53:16.802Z,62.00
2022-08-09T04:55:58.946Z,62.20
2022-08-09T04:58:31.796Z,62.30
2022-08-09T05:01:03.393Z,62.00
2022-08-09T05:03:42.722Z,62.10
2022-08-09T05:06:21.767Z,61.80
2022-08-09T05:08:59.824Z,61.60
2022-08-09T05:11:30.587Z,62.30
2022-08-09T05:13:59.667Z,61.60
2022-08-09T05:16:31.475Z,61.50
2022-08-09T05:19:00.309Z,61.30
2022-08-09T05:21:46.852Z,61.00
2022-08-09T05:24:21.154Z,60.70
2022-08-09T05:26:51.399Z,60.60
2022-08-09T05:29:21.760Z,60.60
2022-08-09T05:31:57.585Z,60.40
2022-08-09T05:34:30.218Z,60.00
2022-08-09T05:37:05.223Z,60.00
2022-08-09T05:39:42.631Z,60.10
2022-08-09T05:42:17.412Z,59.50
2022-08-09T05:44:50.701Z,59.00
2022-08-09T05:47:19.355Z,58.60
2022-08-09T05:50:26.746Z,58.40
2022-08-09T05:52:38.480Z,58.00
2022-08-09T05:55:07.312Z,58.20
2022-08-09T05:57:50.860Z,57.60
2022-08-09T06:00:23.310Z,57.10
2022-08-09T06:02:54.387Z,57.20
2022-08-09T06:05:30.766Z,57.00
2022-08-09T06:08:10.994Z,56.50
2022-08-09T06:10:38.601Z,56.60
2022-08-09T06:13:19.049Z,56.20
2022-08-09T06:15:52.160Z,56.40
2022-08-09T06:18:25.209Z,56.10
2022-08-09T06:20:59.798Z,55.60
2022-08-09T06:23:57.460Z,56.00
2022-08-09T06:26:20.284Z,55.90
2022-08-09T06:29:00.769Z,55.70
2022-08-09T06:31:40.072Z,55.50
2022-08-09T06:34:26.140Z,55.50
2022-08-09T06:36:59.540Z,54.60
2022-08-09T06:39:48.790Z,54.50
2022-08-09T06:42:15.562Z,54.40
2022-08-09T06:44:42.364Z,54.40
2022-08-09T06:47:12.601Z,53.70
2022-08-09T06:50:12.061Z,53.60
2022-08-09T06:52:28.923Z,53.40
2022-08-09T06:54:55.933Z,52.90
2022-08-09T06:57:25.907Z,52.60
2022-08-09T07:00:50.244Z,52.30
2022-08-09T07:03:01.099Z,51.90
2022-08-09T07:06:02.442Z,51.90
2022-08-09T07:08:19.789Z,51.70
2022-08-09T07:10:51.995Z,50.80
2022-08-09T07:13:27.950Z,50.90
2022-08-09T07:16:41.909Z,50.60
2022-08-09T07:18:50.051Z,50.70
2022-08-09T07:21:17.671Z,49.90
2022-08-09T07:23:56.588Z,49.50
2022-08-09T07:26:26.008Z,49.70
2022-08-09T07:29:07.873Z,48.70
2022-08-09T07:31:45.408Z,47.70
2022-08-09T07:34:20.603Z,47.70
2022-08-09T07:36:48.613Z,47.30
2022-08-09T07:39:20.274Z,47.40
2022-08-09T07:42:06.348Z,47.20
2022-08-09T07:44:51.055Z,47.40
2022-08-09T07:47:39.422Z,48.10
2022-08-09T07:50:09.491Z,48.20
2022-08-09T07:52:38.329Z,48.30
2022-08-09T07:55:08.765Z,48.10
2022-08-09T07:57:37.001Z,48.30
2022-08-09T08:00:08.978Z,48.50
2022-08-09T08:02:38.466Z,48.20
2022-08-09T08:05:18.576Z,47.70
2022-08-09T08:08:43.864Z,47.60
2022-08-09T08:10:36.040Z,47.00
2022-08-09T08:13:04.045Z,47.40
2022-08-09T08:15:37.543Z,47.20
2022-08-09T08:18:06.227Z,46.60
2022-08-09T08:20:35.741Z,46.40
2022-08-09T08:23:16.650Z,45.80
2022-08-09T08:25:49.705Z,45.70
2022-08-09T08:28:18.393Z,45.70
2022-08-09T08:31:02.478Z,45.60
2022-08-09T08:33:49.642Z,45.70
2022-08-09T08:36:28.397Z,44.90
2022-08-09T08:38:59.914Z,45.60
2022-08-09T08:41:51.070Z,45.90
2022-08-09T08:44:15.504Z,45.70
2022-08-09T08:47:03.365Z,45.80
2022-08-09T08:49:46.978Z,45.00
2022-08-09T08:52:52.608Z,44.80
2022-08-09T08:55:10.530Z,44.70
2022-08-09T08:57:38.125Z,44.60
2022-08-09T09:00:17.142Z,44.40
2022-08-09T09:02:53.910Z,44.50
2022-08-09T09:05:33.106Z,43.70
2022-08-09T09:08:30.538Z,43.60
2022-08-09T09:11:01.763Z,42.50
2022-08-09T09:13:41.592Z,42.30
2022-08-09T09:16:16.461Z,42.20
2022-08-09T09:18:48.741Z,41.70
2022-08-09T09:21:26.047Z,41.00
2022-08-09T09:23:58.059Z,41.00
2022-08-09T09:26:26.153Z,41.10
2022-08-09T09:29:08.098Z,40.40
2022-08-09T09:32:03.764Z,39.70
2022-08-09T09:34:33.219Z,39.30
2022-08-09T09:37:01.968Z,39.00
2022-08-09T09:39:50.275Z,38.30
2022-08-09T09:42:26.417Z,38.10
2022-08-09T09:45:03.092Z,37.20
2022-08-09T09:47:35.855Z,37.80
2022-08-09T09:50:16.817Z,37.40
2022-08-09T09:52:56.179Z,37.40
2022-08-09T09:55:32.630Z,36.50
2022-08-09T09:58:18.840Z,36.50
2022-08-09T10:00:59.467Z,36.30
2022-08-09T10:03:58.201Z,36.30
2022-08-09T10:06:42.602Z,36.40
2022-08-09T10:09:11.932Z,36.40
2022-08-09T10:12:11.780Z,36.50
2022-08-09T10:14:44.030Z,36.50
2022-08-09T10:17:40.648Z,36.60
2022-08-09T10:20:32.657Z,35.90
2022-08-09T10:23:20.029Z,35.90
2022-08-09T10:26:06.881Z,35.90
2022-08-09T10:28:38.748Z,36.00
2022-08-09T10:32:27.602Z,35.40
2022-08-09T10:34:11.105Z,35.20
2022-08-09T10:36:49.994Z,34.80
2022-08-09T10:39:19.312Z,34.70
2022-08-09T10:41:47.582Z,34.60
2022-08-09T10:44:19.292Z,34.40
2022-08-09T10:47:20.389Z,33.90
2022-08-09T10:50:30.629Z,32.80
2022-08-09T10:53:37.978Z,32.50
2022-08-09T10:56:25.493Z,31.50
2022-08-09T10:58:55.759Z,31.40
2022-08-09T11:03:13.616Z,31.00
2022-08-09T11:04:30.210Z,31.10
2022-08-09T11:07:00.311Z,30.80
2022-08-09T11:09:59.653Z,31.10
2022-08-09T11:12:30.329Z,30.70
2022-08-09T11:15:33.801Z,30.40
2022-08-09T11:18:03.617Z,29.70
2022-08-09T11:20:44.895Z,29.30
2022-08-09T11:23:14.461Z,28.50
2022-08-09T11:25:48.122Z,27.50
2022-08-09T11:28:38.663Z,26.90
2022-08-09T11:31:49.617Z,25.70
2022-08-09T11:34:43.995Z,25.30
2022-08-09T11:37:40.645Z,24.60
2022-08-09T11:40:13.974Z,25.20
2022-08-09T11:42:50.613Z,24.50
2022-08-09T11:45:42.384Z,25.20
2022-08-09T11:48:25.034Z,25.50
2022-08-09T11:51:21.304Z,25.80
2022-08-09T11:54:13.715Z,24.90
2022-08-09T11:56:48.105Z,24.30
2022-08-09T11:59:30.133Z,25.10
2022-08-09T12:02:34.483Z,25.20
2022-08-09T12:04:54.571Z,24.70
2022-08-09T12:07:34.366Z,24.90
2022-08-09T12:10:32.096Z,23.90
2022-08-09T12:12:55.956Z,23.30
2022-08-09T12:15:50.444Z,23.20
2022-08-09T12:18:30.042Z,22.70
2022-08-09T12:21:00.554Z,22.10
2022-08-09T12:23:56.635Z,21.90
2022-08-09T12:26:19.772Z,21.30
2022-08-09T12:29:29.489Z,21.30
2022-08-09T12:32:01.667Z,19.30
2022-08-09T12:34:37.792Z,17.90
2022-08-09T12:37:22.313Z,17.50
2022-08-09T12:40:11.978Z,17.30
2022-08-09T12:42:44.284Z,14.20
2022-08-09T12:45:33.975Z,9.60
2022-08-09T12:47:59.004Z,5.10
2022-08-09T12:50:30.834Z,9.40
2022-08-09T12:53:09.266Z,7.00
2022-08-09T12:56:15.185Z,2.80
2022-08-09T12:58:31.734Z,2.20
2022-08-09T13:00:59.178Z,2.10
2022-08-09T13:03:53.528Z,2.10
2022-08-09T13:06:34.539Z,1.00
2022-08-09T13:09:09.924Z,1.00
2022-08-09T13:11:47.003Z,1.00
2022-08-09T13:14:41.542Z,1.00
2022-08-09T13:17:16.007Z,1.00
2022-08-09T13:20:08.284Z,3.00
2022-08-09T13:23:05.830Z,4.10
2022-08-09T13:25:23.071Z,4.80
2022-08-09T13:27:56.013Z,1.00
2022-08-09T13:30:50.252Z,1.00
2022-08-09T13:33:22.355Z,1.00
2022-08-09T13:36:24.576Z,1.00
2022-08-09T13:38:57.679Z,1.00
2022-08-09T13:41:57.836Z,1.00
2022-08-09T13:44:17.145Z,1.00
2022-08-09T13:47:26.617Z,1.00
2022-08-09T13:49:39.730Z,1.00
2022-08-09T13:52:23.571Z,1.00
2022-08-09T13:55:00.978Z,1.00
2022-08-09T13:57:39.670Z,1.00
2022-08-09T14:00:28.628Z,1.00
2022-08-09T14:03:02.720Z,1.00
2022-08-09T14:05:57.444Z,1.00
2022-08-09T14:08:29.934Z,1.00
2022-08-09T14:10:57.425Z,1.00
2022-08-09T14:13:28.094Z,1.00
2022-08-09T14:16:17.071Z,1.00
2022-08-09T14:18:49.277Z,1.00
2022-08-09T14:21:29.185Z,1.00
2022-08-09T14:24:01.405Z,1.00
2022-08-09T14:26:35.218Z,1.00
2022-08-09T14:29:07.747Z,1.00
2022-08-09T14:31:54.389Z,1.00
2022-08-09T14:34:27.380Z,1.00
2022-08-09T14:37:05.924Z,1.00
2022-08-09T14:39:40.550Z,1.00
2022-08-09T14:42:28.998Z,1.00
2022-08-09T14:46:39.805Z,1.00
2022-08-09T14:47:58.661Z,1.00
2022-08-09T14:50:34.621Z,2.70
2022-08-09T14:53:11.441Z,5.10
2022-08-09T14:55:41.841Z,6.50
2022-08-09T14:58:10.005Z,7.80
2022-08-09T15:00:37.594Z,8.70
2022-08-09T15:03:10.624Z,9.10
2022-08-09T15:05:39.650Z,9.20
2022-08-09T15:08:17.527Z,9.20
2022-08-09T15:11:00.995Z,10.10
2022-08-09T15:13:48.089Z,10.80
2022-08-09T15:16:19.732Z,11.70
2022-08-09T15:18:48.448Z,12.70
2022-08-09T15:21:55.627Z,14.00
2022-08-09T15:24:11.449Z,14.60
2022-08-09T15:26:45.935Z,14.00
2022-08-09T15:30:56.335Z,13.60
2022-08-09T15:32:01.004Z,15.00
2022-08-09T15:34:34.360Z,15.50
2022-08-09T15:37:03.985Z,16.20
2022-08-09T15:39:34.352Z,16.60
2022-08-09T15:42:04.558Z,17.40
2022-08-09T15:44:37.470Z,18.10
2022-08-09T15:47:05.571Z,18.40
2022-08-09T15:50:00.355Z,18.40
2022-08-09T15:52:28.271Z,18.20
2022-08-09T15:54:57.740Z,17.30
2022-08-09T15:57:34.351Z,16.70
2022-08-09T16:00:15.346Z,17.40
2022-08-09T16:02:56.240Z,17.70
2022-08-09T16:05:47.501Z,17.50
2022-08-09T16:08:30.224Z,18.10
2022-08-09T16:11:02.698Z,19.00
2022-08-09T16:14:03.349Z,19.90
2022-08-09T16:16:20.011Z,20.10
2022-08-09T16:18:55.978Z,20.30
2022-08-09T16:21:25.711Z,20.70
2022-08-09T16:23:58.692Z,20.60
2022-08-09T16:26:35.630Z,20.80
2022-08-09T16:29:20.130Z,21.10
2022-08-09T16:32:18.710Z,20.60
2022-08-09T16:34:56.121Z,20.60
2022-08-09T16:37:55.045Z,20.50
2022-08-09T16:40:14.286Z,20.40
2022-08-09T16:42:48.366Z,21.10
2022-08-09T16:45:19.851Z,20.80
2022-08-09T16:48:39.216Z,20.60
2022-08-09T16:50:38.850Z,20.40
2022-08-09T16:53:06.405Z,21.60
2022-08-09T16:55:59.901Z,22.60
2022-08-09T16:58:25.328Z,22.70
2022-08-09T17:00:55.246Z,22.80
2022-08-09T17:03:24.459Z,23.40
2022-08-09T17:06:08.047Z,23.90
2022-08-09T17:09:01.800Z,24.00
2022-08-09T17:11:40.238Z,24.40
2022-08-09T17:14:26.500Z,24.80
2022-08-09T17:17:12.786Z,25.10
2022-08-09T17:20:29.771Z,25.40
2022-08-09T17:22:52.173Z,25.80
2022-08-09T17:25:22.209Z,26.70
2022-08-09T17:27:54.542Z,27.40
2022-08-09T17:30:26.474Z,27.80
2022-08-09T17:33:04.686Z,28.00
2022-08-09T17:35:41.193Z,28.50
2022-08-09T17:38:31.991Z,28.90
2022-08-09T17:41:00.809Z,29.00
2022-08-09T17:43:34.426Z,29.30
2022-08-09T17:46:06.750Z,29.50
2022-08-09T17:48:46.511Z,29.70
2022-08-09T17:51:20.002Z,29.90
2022-08-09T17:53:52.450Z,30.20
2022-08-09T17:56:32.412Z,30.70
2022-08-09T17:59:09.540Z,30.90
2022-08-09T18:02:03.653Z,31.40
2022-08-09T18:04:26.704Z,31.70
2022-08-09T18:06:55.669Z,32.20
2022-08-09T18:09:40.190Z,32.30
2022-08-09T18:12:17.216Z,32.80
2022-08-09T18:14:53.750Z,33.40
2022-08-09T18:18:03.407Z,33.50
2022-08-09T18:20:54.253Z,33.90
2022-08-09T18:23:07.354Z,34.30
2022-08-09T18:25:53.358Z,34.60
2022-08-09T18:30:41.355Z,34.80
2022-08-09T18:31:12.019Z,35.10
2022-08-09T18:33:40.171Z,35.40
2022-08-09T18:36:07.979Z,35.90
2022-08-09T18:38:43.967Z,36.20
2022-08-09T18:41:11.405Z,36.20
2022-08-09T18:43:52.203Z,36.90
2022-08-09T18:46:47.765Z,37.40
2022-08-09T18:49:07.110Z,37.70
2022-08-09T18:51:38.586Z,38.20
2022-08-09T18:54:29.647Z,38.60
2022-08-09T18:57:06.052Z,38.90
2022-08-09T18:59:37.433Z,39.30
2022-08-09T19:02:16.913Z,39.40
2022-08-09T19:04:47.796Z,39.70
2022-08-09T19:07:31.470Z,39.90
2022-08-09T19:10:15.599Z,40.20
2022-08-09T19:12:45.650Z,40.70
2022-08-09T19:15:29.241Z,40.70
2022-08-09T19:17:58.344Z,40.80
2022-08-09T19:20:26.361Z,41.60
2022-08-09T19:23:06.448Z,41.80
2022-08-09T19:26:01.440Z,42.50
2022-08-09T19:28:23.203Z,42.80
2022-08-09T19:30:56.081Z,42.90
2022-08-09T19:33:25.350Z,43.20
2022-08-09T19:35:56.883Z,43.40
2022-08-09T19:38:26.793Z,43.80
2022-08-09T19:40:54.305Z,44.20
2022-08-09T19:44:01.248Z,44.40
2022-08-09T19:46:14.624Z,45.30
2022-08-09T19:49:02.702Z,45.40
2022-08-09T19:51:30.977Z,45.90
2022-08-09T19:53:59.045Z,46.10
2022-08-09T19:56:28.739Z,46.80
2022-08-09T19:59:39.927Z,47.20
2022-08-09T20:02:02.974Z,47.60
2022-08-09T20:04:37.577Z,47.80
2022-08-09T20:07:20.949Z,47.90
2022-08-09T20:09:48.974Z,47.90
2022-08-09T20:12:29.875Z,48.00
2022-08-09T20:16:35.774Z,48.60
2022-08-09T20:17:55.626Z,48.70
2022-08-09T20:20:25.108Z,48.90
2022-08-09T20:22:56.720Z,49.20
2022-08-09T20:25:24.325Z,49.50
2022-08-09T20:27:52.342Z,50.10
2022-08-09T20:30:23.796Z,50.10
2022-08-09T20:32:52.236Z,50.00
2022-08-09T20:35:20.656Z,50.80
2022-08-09T20:38:20.751Z,51.20
2022-08-09T20:40:36.258Z,51.40
2022-08-09T20:43:18.666Z,51.80
2022-08-09T20:45:56.714Z,51.90
2022-08-09T20:48:29.053Z,51.90
2022-08-09T20:51:01.439Z,52.20
2022-08-09T20:53:36.147Z,52.80
2022-08-09T20:56:08.707Z,53.00
2022-08-09T20:58:36.131Z,53.20
2022-08-09T21:01:32.896Z,53.60
2022-08-09T21:04:07.964Z,54.00
2022-08-09T21:06:42.682Z,54.60
2022-08-09T21:09:13.634Z,54.60
2022-08-09T21:14:31.390Z,55.30
2022-08-09T21:16:59.524Z,55.50
2022-08-09T21:20:17.891Z,56.00
2022-08-09T21:22:35.882Z,56.30
2022-08-09T21:25:20.928Z,56.40
2022-08-09T21:27:52.934Z,56.80
2022-08-09T21:30:22.121Z,57.10
2022-08-09T21:32:50.592Z,57.50
2022-08-09T21:35:18.041Z,57.60
2022-08-09T21:37:59.557Z,58.20
2022-08-09T21:40:30.935Z,58.40
2022-08-09T21:43:04.178Z,59.20
2022-08-09T21:45:38.900Z,59.20
2022-08-09T21:48:07.306Z,59.90
2022-08-09T21:50:38.487Z,60.30
2022-08-09T21:53:23.900Z,60.80
2022-08-09T21:55:58.058Z,61.10
2022-08-09T21:58:31.095Z,61.50
2022-08-09T22:01:00.974Z,62.00
2022-08-09T22:03:28.134Z,62.00
2022-08-09T22:05:58.068Z,62.60
2022-08-09T22:08:28.268Z,63.10
2022-08-09T22:11:01.123Z,63.20
2022-08-09T22:13:45.589Z,64.20
2022-08-09T22:16:15.145Z,64.40
2022-08-09T22:18:53.594Z,64.60
2022-08-09T22:21:50.157Z,64.80
2022-08-09T22:24:17.306Z,65.10
2022-08-09T22:26:51.567Z,65.60
2022-08-09T22:29:28.888Z,66.20
2022-08-09T22:32:01.923Z,66.70
2022-08-09T22:34:29.493Z,67.30
2022-08-09T22:36:58.095Z,67.60
2022-08-09T22:39:56.386Z,68.00
2022-08-09T22:42:16.265Z,68.80
2022-08-09T22:44:48.875Z,69.20
2022-08-09T22:48:14.953Z,69.80
2022-08-09T22:50:16.337Z,70.30
2022-08-09T22:52:43.387Z,71.50
2022-08-09T22:55:18.859Z,71.60
2022-08-09T22:58:00.081Z,72.10
2022-08-09T23:00:29.622Z,73.00
2022-08-09T23:02:56.623Z,73.00
2022-08-09T23:05:25.829Z,73.50
2022-08-09T23:08:27.453Z,74.20
2022-08-09T23:10:56.640Z,74.20
2022-08-09T23:13:23.733Z,75.00
2022-08-09T23:16:03.050Z,75.30
2022-08-09T23:18:33.477Z,75.80
2022-08-09T23:21:01.085Z,76.80
2022-08-09T23:23:28.014Z,77.00
2022-08-09T23:25:55.944Z,77.70
2022-08-09T23:28:22.888Z,78.00
2022-08-09T23:30:52.251Z,78.90
2022-08-09T23:33:20.491Z,80.00
2022-08-09T23:36:06.698Z,80.40
2022-08-09T23:38:49.144Z,81.50
2022-08-09T23:41:27.728Z,81.90
2022-08-09T23:44:01.086Z,82.90
2022-08-09T23:46:31.904Z,83.80
2022-08-09T23:49:00.254Z,84.20
2022-08-09T23:51:27.877Z,84.80
2022-08-09T23:54:02.583Z,85.70
2022-08-09T23:56:39.492Z,86.60
2022-08-09T23:59:22.064Z,87.00
